Main page
Satellite images 10-day forecastsClimateMarine weather Cyclones Lightning AirportsFAQ Newsletter About
Weather : Europe Africa North America South America Asia Australia-Oceania Others
Languages Contact

Ljubljana, Slovenia

Ljubljana Jože Pučnik Airport

latitude: 46-13N, longitude: 014-29E, elevation: 385 m


METAR: LJLJ 310000Z 33002KT CAVOK 18/16 Q1020 NOSIG
TAF: LJLJ 302300Z 3100/3124 VRB02KT CAVOK BECMG 3108/3110 25005KT TEMPO 3112/3117 25010KT BECMG 3118/3120 VRB02KT

Time: 02:30 (00:30 UTC)

Current weather observation

The report was made 30 minutes ago, at 00:00 UTC
Wind 2 kt from the North/Northwest
Temperature 18°C
Humidity 88%
Pressure 1020 hPa
Visibility 10 km or more
no clouds below 1500 m and no cumulonimbus

Change units

Forecast

The report was made 1 hour and 30 minutes ago, at 23:00 UTC
Forecast valid from 31 at 00 UTC to 31 at 24 UTC
Wind 2 kt from variable directions
Visibility 10 km or more
no clouds below 1500 m and no cumulonimbus
Becoming
from 31 at 08 UTC to 31 at 10 UTC
Wind 5 kt from the West/Southwest
Temporary
from 31 at 12 UTC to 31 at 17 UTC
Wind 10 kt from the West/Southwest
Becoming
from 31 at 18 UTC to 31 at 20 UTC
Wind 2 kt from variable directions
The information on this site is subject to a disclaimer
Weather : Europe Africa North America South America Asia Australia-Oceania Others
Satellite images 10-day forecastsClimateMarine weather Cyclones Lightning AirportsFAQ Languages Contact Newsletter About